PWSweather.com
Personal Weather Stations
Station Observations
KNCCHINA3
Red Tractor Trail, China Grove, NC 28023

Red Tractor TrailChina Grove, NC 28023

Lat: 35.59751, Lon: -80.60201

Elevation: 800

Station Type: Oregon Scientific WMR 968

http://www.joesweathergarage.com

High Low Average
Temperature 70.7°F21.5°C 54.4°F12.4°C 59.5°F15.3°C
Dew Point 67.6°F19.8°C 53.7°F12.1°C 58.7°F14.8°C
Winds 17.0 mph 27.4 kmh 1.9 mph 3.1 kmh 7.0 mph E11.3 kmh E
Wind Gusts 24.2 mph38.9 kmh 2.6 mph4.2 kmh 10.0 mph16.1 kmh
Humidity 98% 89% 98%
Pressure 30.03 in1016.9 mb 29.77 in1008.1 mb -
Precipitation 1.41 in35.8 mm - -
Hour Temp Dew Point Humidity Winds Wind Gusts Pressure Precip Precip Rate Daily Precip Total
12:02 AM 55.3°F12.9°C 54.6°F12.6°C 98% 5.8 mph SE9.3 kmh SE 15.2 mph24.5 kmh 30.06 in1017.9 mb 0.04 in1.0 mm 1.20 in30.5 mm 0.04 in1.0 mm
12:07 AM 55.3°F12.9°C 54.6°F12.6°C 98% 6.2 mph E10.0 kmh E 15.2 mph24.5 kmh 30.06 in1017.9 mb 0.04 in1.0 mm 0.00 in0.0 mm 0.04 in1.0 mm
12:12 AM 55.3°F12.9°C 54.6°F12.6°C 98% 6.0 mph SSE9.7 kmh SSE 19.6 mph31.5 kmh 30.06 in1017.9 mb 0.04 in1.0 mm 0.00 in0.0 mm 0.04 in1.0 mm
12:17 AM 55.3°F12.9°C 54.6°F12.6°C 98% 18.5 mph SSW29.8 kmh SSW 19.6 mph31.5 kmh 30.06 in1017.9 mb 0.08 in2.0 mm 0.48 in12.2 mm 0.04 in1.0 mm
12:22 AM 55.3°F12.9°C 54.6°F12.6°C 98% 9.5 mph E15.3 kmh E 19.6 mph31.5 kmh 30.03 in1016.9 mb 0.08 in2.0 mm 0.00 in0.0 mm 0.04 in1.0 mm
12:27 AM 55.3°F12.9°C 54.6°F12.6°C 98% 10.1 mph E16.3 kmh E 10.8 mph17.4 kmh 30.03 in1016.9 mb 0.08 in2.0 mm 0.00 in0.0 mm 0.04 in1.0 mm
12:32 AM 55.3°F12.9°C 54.6°F12.6°C 98% 7.0 mph E11.3 kmh E 10.8 mph17.4 kmh 30.03 in1016.9 mb 0.12 in3.0 mm 0.48 in12.2 mm 0.08 in2.0 mm
12:37 AM 55.3°F12.9°C 54.6°F12.6°C 98% 15.6 mph SE25.1 kmh SE 15.6 mph25.1 kmh 30.03 in1016.9 mb 0.12 in3.0 mm 0.00 in0.0 mm 0.08 in2.0 mm
12:42 AM 55.3°F12.9°C 54.6°F12.6°C 98% 15.6 mph SE25.1 kmh SE 15.6 mph25.1 kmh 30.03 in1016.9 mb 0.12 in3.0 mm 0.00 in0.0 mm 0.08 in2.0 mm
12:48 AM 55.3°F12.9°C 54.6°F12.6°C 98% 15.6 mph SE25.1 kmh SE 15.6 mph25.1 kmh 30.03 in1016.9 mb 0.21 in5.3 mm 0.90 in22.9 mm 0.16 in4.1 mm
12:53 AM 55.3°F12.9°C 54.6°F12.6°C 98% 7.9 mph SSE12.7 kmh SSE 15.6 mph25.1 kmh 30.03 in1016.9 mb 0.00 in0.0 mm 0.00 in0.0 mm 0.16 in4.1 mm
12:58 AM 55.3°F12.9°C 54.6°F12.6°C 98% 6.2 mph S10.0 kmh S 15.6 mph25.1 kmh 30.03 in1016.9 mb 0.00 in0.0 mm 0.00 in0.0 mm 0.16 in4.1 mm
01:03 AM 55.3°F12.9°C 54.6°F12.6°C 98% 5.9 mph E9.5 kmh E 7.6 mph12.2 kmh 30.03 in1016.9 mb 0.00 in0.0 mm 0.00 in0.0 mm 0.16 in4.1 mm
01:08 AM 55.3°F12.9°C 54.6°F12.6°C 98% 6.5 mph E10.5 kmh E 7.6 mph12.2 kmh 30.00 in1015.9 mb 0.00 in0.0 mm 0.00 in0.0 mm 0.16 in4.1 mm
01:13 AM 55.3°F12.9°C 54.6°F12.6°C 98% 6.8 mph E10.9 kmh E 9.4 mph15.1 kmh 30.00 in1015.9 mb 0.00 in0.0 mm 0.00 in0.0 mm 0.16 in4.1 mm
01:18 AM 55.3°F12.9°C 54.6°F12.6°C 98% 6.9 mph ENE11.1 kmh ENE 9.4 mph15.1 kmh 30.00 in1015.9 mb 0.00 in0.0 mm 0.00 in0.0 mm 0.16 in4.1 mm
01:23 AM 55.3°F12.9°C 54.6°F12.6°C 98% 12.2 mph E19.6 kmh E 13.0 mph20.9 kmh 30.03 in1016.9 mb 0.00 in0.0 mm 0.00 in0.0 mm 0.16 in4.1 mm
01:29 AM 55.3°F12.9°C 54.6°F12.6°C 98% 14.9 mph SE24.0 kmh SE 15.2 mph24.5 kmh 30.03 in1016.9 mb 0.04 in1.0 mm 0.40 in10.2 mm 0.21 in5.3 mm
01:34 AM 55.3°F12.9°C 54.6°F12.6°C 98% 5.8 mph ESE9.3 kmh ESE 15.2 mph24.5 kmh 30.03 in1016.9 mb 0.04 in1.0 mm 0.00 in0.0 mm 0.21 in5.3 mm
01:39 AM 55.3°F12.9°C 54.6°F12.6°C 98% 6.8 mph NE10.9 kmh NE 15.2 mph24.5 kmh 30.03 in1016.9 mb 0.08 in2.0 mm 0.48 in12.2 mm 0.25 in6.4 mm
01:44 AM 55.3°F12.9°C 54.6°F12.6°C 98% 17.0 mph ESE27.4 kmh ESE 17.0 mph27.4 kmh 30.03 in1016.9 mb 0.08 in2.0 mm 0.00 in0.0 mm 0.25 in6.4 mm
01:49 AM 55.3°F12.9°C 54.6°F12.6°C 98% 9.1 mph E14.6 kmh E 17.0 mph27.4 kmh 30.03 in1016.9 mb 0.13 in3.3 mm 0.60 in15.2 mm 0.29 in7.4 mm
01:54 AM 55.3°F12.9°C 54.6°F12.6°C 98% 7.3 mph SE11.7 kmh SE 17.0 mph27.4 kmh 30.00 in1015.9 mb 0.00 in0.0 mm 0.00 in0.0 mm 0.29 in7.4 mm
01:59 AM 55.3°F12.9°C 54.6°F12.6°C 98% 10.6 mph SSE17.1 kmh SSE 15.6 mph25.1 kmh 30.00 in1015.9 mb 0.00 in0.0 mm 0.00 in0.0 mm 0.29 in7.4 mm
02:04 AM 55.3°F12.9°C 54.6°F12.6°C 98% 8.8 mph ESE14.2 kmh ESE 11.2 mph18.0 kmh 30.00 in1015.9 mb 0.00 in0.0 mm 0.00 in0.0 mm 0.29 in7.4 mm
02:09 AM 55.3°F12.9°C 54.6°F12.6°C 98% 12.5 mph SSE20.1 kmh SSE 15.2 mph24.5 kmh 30.00 in1015.9 mb 0.00 in0.0 mm 0.00 in0.0 mm 0.29 in7.4 mm
02:14 AM 55.3°F12.9°C 54.6°F12.6°C 98% 6.5 mph E10.5 kmh E 15.2 mph24.5 kmh 30.00 in1015.9 mb 0.00 in0.0 mm 0.00 in0.0 mm 0.29 in7.4 mm
02:19 AM 55.1°F12.8°C 54.4°F12.4°C 98% 11.2 mph ESE18.0 kmh ESE 15.2 mph24.5 kmh 30.00 in1015.9 mb 0.00 in0.0 mm 0.00 in0.0 mm 0.29 in7.4 mm
02:24 AM 55.1°F12.8°C 54.4°F12.4°C 98% 11.2 mph ESE18.0 kmh ESE 11.2 mph18.0 kmh 30.00 in1015.9 mb 0.00 in0.0 mm 0.00 in0.0 mm 0.29 in7.4 mm
02:30 AM 55.1°F12.8°C 54.4°F12.4°C 98% 11.2 mph ESE18.0 kmh ESE 11.2 mph18.0 kmh 30.00 in1015.9 mb 0.00 in0.0 mm 0.00 in0.0 mm 0.29 in7.4 mm
02:35 AM 54.9°F12.7°C 54.2°F12.3°C 98% 5.0 mph ENE8.0 kmh ENE 11.2 mph18.0 kmh 30.00 in1015.9 mb 0.00 in0.0 mm 0.00 in0.0 mm 0.29 in7.4 mm
02:40 AM 54.9°F12.7°C 54.2°F12.3°C 98% 9.8 mph NE15.8 kmh NE 11.2 mph18.0 kmh 30.00 in1015.9 mb 0.00 in0.0 mm 0.00 in0.0 mm 0.29 in7.4 mm
02:45 AM 54.9°F12.7°C 54.2°F12.3°C 98% 9.9 mph NE15.9 kmh NE 10.8 mph17.4 kmh 30.00 in1015.9 mb 0.00 in0.0 mm 0.00 in0.0 mm 0.29 in7.4 mm
02:50 AM 54.8°F12.7°C 54.1°F12.3°C 98% 6.6 mph E10.6 kmh E 10.8 mph17.4 kmh 30.00 in1015.9 mb 0.04 in1.0 mm 0.48 in12.2 mm 0.33 in8.4 mm
02:55 AM 54.8°F12.7°C 54.1°F12.3°C 98% 4.4 mph E7.1 kmh E 8.6 mph13.8 kmh 30.00 in1015.9 mb 0.04 in1.0 mm 0.00 in0.0 mm 0.33 in8.4 mm
03:01 AM 54.6°F12.6°C 53.9°F12.2°C 98% 12.1 mph E19.5 kmh E 13.0 mph20.9 kmh 30.00 in1015.9 mb 0.04 in1.0 mm 0.00 in0.0 mm 0.33 in8.4 mm
03:06 AM 54.6°F12.6°C 53.9°F12.2°C 98% 9.4 mph E15.1 kmh E 13.0 mph20.9 kmh 29.97 in1014.9 mb 0.04 in1.0 mm 0.00 in0.0 mm 0.33 in8.4 mm
03:12 AM 54.6°F12.6°C 53.9°F12.2°C 98% 8.8 mph E14.2 kmh E 11.6 mph18.7 kmh 29.97 in1014.9 mb 0.04 in1.0 mm 0.00 in0.0 mm 0.33 in8.4 mm
03:17 AM 54.4°F12.4°C 53.7°F12.1°C 98% 5.3 mph ESE8.5 kmh ESE 11.6 mph18.7 kmh 29.97 in1014.9 mb 0.04 in1.0 mm 0.00 in0.0 mm 0.33 in8.4 mm
03:22 AM 54.4°F12.4°C 53.7°F12.1°C 98% 6.0 mph E9.7 kmh E 15.6 mph25.1 kmh 29.97 in1014.9 mb 0.04 in1.0 mm 0.00 in0.0 mm 0.33 in8.4 mm
03:27 AM 54.4°F12.4°C 53.7°F12.1°C 98% 7.4 mph E11.9 kmh E 15.6 mph25.1 kmh 29.97 in1014.9 mb 0.04 in1.0 mm 0.00 in0.0 mm 0.33 in8.4 mm
03:32 AM 54.4°F12.4°C 53.7°F12.1°C 98% 7.3 mph SE11.7 kmh SE 14.8 mph23.8 kmh 29.97 in1014.9 mb 0.04 in1.0 mm 0.00 in0.0 mm 0.33 in8.4 mm
03:37 AM 54.4°F12.4°C 53.7°F12.1°C 98% 7.1 mph E11.4 kmh E 14.8 mph23.8 kmh 29.97 in1014.9 mb 0.04 in1.0 mm 0.00 in0.0 mm 0.33 in8.4 mm
03:43 AM 54.4°F12.4°C 53.7°F12.1°C 98% 8.6 mph SE13.8 kmh SE 9.8 mph15.8 kmh 29.97 in1014.9 mb 0.04 in1.0 mm 0.00 in0.0 mm 0.33 in8.4 mm
03:48 AM 54.4°F12.4°C 53.7°F12.1°C 98% 6.2 mph SE10.0 kmh SE 9.8 mph15.8 kmh 29.97 in1014.9 mb 0.04 in1.0 mm 0.00 in0.0 mm 0.33 in8.4 mm
03:53 AM 54.4°F12.4°C 53.7°F12.1°C 98% 9.3 mph E15.0 kmh E 11.6 mph18.7 kmh 29.94 in1013.9 mb 0.00 in0.0 mm 0.00 in0.0 mm 0.33 in8.4 mm
03:58 AM 54.4°F12.4°C 53.7°F12.1°C 98% 7.6 mph ENE12.2 kmh ENE 11.6 mph18.7 kmh 29.94 in1013.9 mb 0.00 in0.0 mm 0.00 in0.0 mm 0.33 in8.4 mm
04:04 AM 54.4°F12.4°C 53.7°F12.1°C 98% 8.4 mph ESE13.5 kmh ESE 9.8 mph15.8 kmh 29.94 in1013.9 mb 0.00 in0.0 mm 0.00 in0.0 mm 0.33 in8.4 mm
04:09 AM 54.4°F12.4°C 53.7°F12.1°C 98% 6.8 mph ESE10.9 kmh ESE 9.8 mph15.8 kmh 29.97 in1014.9 mb 0.00 in0.0 mm 0.00 in0.0 mm 0.33 in8.4 mm
04:14 AM 54.4°F12.4°C 53.7°F12.1°C 98% 5.9 mph E9.5 kmh E 6.8 mph10.9 kmh 29.97 in1014.9 mb 0.00 in0.0 mm 0.00 in0.0 mm 0.33 in8.4 mm
04:19 AM 54.6°F12.6°C 53.9°F12.2°C 98% 14.4 mph SSE23.2 kmh SSE 14.4 mph23.2 kmh 29.97 in1014.9 mb 0.00 in0.0 mm 0.00 in0.0 mm 0.33 in8.4 mm
04:24 AM 54.6°F12.6°C 53.9°F12.2°C 98% 7.6 mph SE12.2 kmh SE 14.4 mph23.2 kmh 29.97 in1014.9 mb 0.00 in0.0 mm 0.00 in0.0 mm 0.33 in8.4 mm
04:29 AM 54.6°F12.6°C 53.9°F12.2°C 98% 9.4 mph E15.1 kmh E 14.4 mph23.2 kmh 29.97 in1014.9 mb 0.00 in0.0 mm 0.00 in0.0 mm 0.33 in8.4 mm
04:34 AM 54.8°F12.7°C 54.1°F12.3°C 98% 12.4 mph ESE20.0 kmh ESE 16.2 mph26.1 kmh 29.97 in1014.9 mb 0.00 in0.0 mm 0.00 in0.0 mm 0.33 in8.4 mm
04:39 AM 54.8°F12.7°C 54.1°F12.3°C 98% 5.8 mph ESE9.3 kmh ESE 16.2 mph26.1 kmh 30.00 in1015.9 mb 0.00 in0.0 mm 0.00 in0.0 mm 0.33 in8.4 mm
04:44 AM 54.8°F12.7°C 54.1°F12.3°C 98% 8.4 mph ESE13.5 kmh ESE 10.8 mph17.4 kmh 30.00 in1015.9 mb 0.00 in0.0 mm 0.00 in0.0 mm 0.33 in8.4 mm
04:49 AM 54.8°F12.7°C 54.1°F12.3°C 98% 8.8 mph ESE14.2 kmh ESE 11.6 mph18.7 kmh 30.00 in1015.9 mb 0.00 in0.0 mm 0.00 in0.0 mm 0.33 in8.4 mm
04:54 AM 54.8°F12.7°C 54.1°F12.3°C 98% 7.5 mph SE12.1 kmh SE 11.6 mph18.7 kmh 29.97 in1014.9 mb 0.04 in1.0 mm 0.48 in12.2 mm 0.37 in9.4 mm
04:59 AM 54.8°F12.7°C 54.1°F12.3°C 98% 5.3 mph ENE8.5 kmh ENE 9.8 mph15.8 kmh 29.97 in1014.9 mb 0.04 in1.0 mm 0.00 in0.0 mm 0.37 in9.4 mm
05:05 AM 54.9°F12.7°C 54.2°F12.3°C 98% 8.6 mph SE13.8 kmh SE 18.8 mph30.3 kmh 29.94 in1013.9 mb 0.04 in1.0 mm 0.00 in0.0 mm 0.37 in9.4 mm
05:10 AM 54.9°F12.7°C 54.2°F12.3°C 98% 10.2 mph ESE16.4 kmh ESE 18.8 mph30.3 kmh 29.94 in1013.9 mb 0.04 in1.0 mm 0.00 in0.0 mm 0.37 in9.4 mm
05:15 AM 54.9°F12.7°C 54.2°F12.3°C 98% 12.9 mph E20.8 kmh E 24.2 mph38.9 kmh 29.94 in1013.9 mb 0.04 in1.0 mm 0.00 in0.0 mm 0.37 in9.4 mm
05:20 AM 54.9°F12.7°C 54.2°F12.3°C 98% 7.8 mph E12.6 kmh E 24.2 mph38.9 kmh 29.94 in1013.9 mb 0.04 in1.0 mm 0.00 in0.0 mm 0.37 in9.4 mm
05:25 AM 54.9°F12.7°C 54.2°F12.3°C 98% 7.1 mph E11.4 kmh E 14.4 mph23.2 kmh 29.94 in1013.9 mb 0.04 in1.0 mm 0.00 in0.0 mm 0.37 in9.4 mm
05:30 AM 54.9°F12.7°C 54.2°F12.3°C 98% 8.9 mph E14.3 kmh E 14.4 mph23.2 kmh 29.94 in1013.9 mb 0.04 in1.0 mm 0.00 in0.0 mm 0.37 in9.4 mm
05:35 AM 54.9°F12.7°C 54.2°F12.3°C 98% 7.5 mph ESE12.1 kmh ESE 18.8 mph30.3 kmh 29.94 in1013.9 mb 0.09 in2.3 mm 0.60 in15.2 mm 0.42 in10.7 mm
05:40 AM 54.9°F12.7°C 54.2°F12.3°C 98% 7.3 mph ESE11.7 kmh ESE 18.8 mph30.3 kmh 29.94 in1013.9 mb 0.13 in3.3 mm 0.48 in12.2 mm 0.46 in11.7 mm
05:46 AM 55.1°F12.8°C 54.4°F12.4°C 98% 11.2 mph ESE18.0 kmh ESE 11.2 mph18.0 kmh 29.94 in1013.9 mb 0.13 in3.3 mm 0.00 in0.0 mm 0.46 in11.7 mm
05:51 AM 55.1°F12.8°C 54.4°F12.4°C 98% 7.7 mph E12.4 kmh E 11.2 mph18.0 kmh 29.94 in1013.9 mb 0.00 in0.0 mm 0.00 in0.0 mm 0.46 in11.7 mm
05:58 AM 55.1°F12.8°C 54.4°F12.4°C 98% 5.4 mph E8.7 kmh E 11.2 mph18.0 kmh 29.94 in1013.9 mb 0.00 in0.0 mm 0.00 in0.0 mm 0.46 in11.7 mm
06:03 AM 55.1°F12.8°C 54.4°F12.4°C 98% 6.7 mph SSE10.8 kmh SSE 6.8 mph10.9 kmh 29.94 in1013.9 mb 0.00 in0.0 mm 0.00 in0.0 mm 0.46 in11.7 mm
06:08 AM 55.3°F12.9°C 54.6°F12.6°C 98% 8.6 mph ESE13.8 kmh ESE 8.6 mph13.8 kmh 29.91 in1012.9 mb 0.00 in0.0 mm 0.00 in0.0 mm 0.46 in11.7 mm
06:13 AM 55.3°F12.9°C 54.6°F12.6°C 98% 7.6 mph ESE12.2 kmh ESE 8.6 mph13.8 kmh 29.91 in1012.9 mb 0.00 in0.0 mm 0.00 in0.0 mm 0.46 in11.7 mm
06:19 AM 55.3°F12.9°C 54.6°F12.6°C 98% 7.2 mph SE11.6 kmh SE 8.6 mph13.8 kmh 29.91 in1012.9 mb 0.00 in0.0 mm 0.00 in0.0 mm 0.46 in11.7 mm
06:24 AM 55.3°F12.9°C 54.6°F12.6°C 98% 6.2 mph ESE10.0 kmh ESE 8.6 mph13.8 kmh 29.91 in1012.9 mb 0.00 in0.0 mm 0.00 in0.0 mm 0.46 in11.7 mm
06:29 AM 55.3°F12.9°C 54.6°F12.6°C 98% 6.8 mph E10.9 kmh E 12.0 mph19.3 kmh 29.91 in1012.9 mb 0.00 in0.0 mm 0.00 in0.0 mm 0.46 in11.7 mm
06:34 AM 55.3°F12.9°C 54.6°F12.6°C 98% 14.0 mph ESE22.5 kmh ESE 14.4 mph23.2 kmh 29.91 in1012.9 mb 0.00 in0.0 mm 0.00 in0.0 mm 0.46 in11.7 mm
06:39 AM 55.3°F12.9°C 54.6°F12.6°C 98% 9.6 mph ESE15.4 kmh ESE 21.0 mph33.8 kmh 29.91 in1012.9 mb 0.00 in0.0 mm 0.00 in0.0 mm 0.46 in11.7 mm
06:44 AM 55.3°F12.9°C 54.6°F12.6°C 98% 8.3 mph SE13.4 kmh SE 21.0 mph33.8 kmh 29.91 in1012.9 mb 0.00 in0.0 mm 0.00 in0.0 mm 0.46 in11.7 mm
06:49 AM 55.3°F12.9°C 54.6°F12.6°C 98% 8.6 mph E13.8 kmh E 14.8 mph23.8 kmh 29.91 in1012.9 mb 0.00 in0.0 mm 0.00 in0.0 mm 0.46 in11.7 mm
06:54 AM 55.5°F13.1°C 54.8°F12.7°C 98% 11.8 mph E19.0 kmh E 17.4 mph28.0 kmh 29.91 in1012.9 mb 0.04 in1.0 mm 0.48 in12.2 mm 0.50 in12.7 mm
06:59 AM 55.5°F13.1°C 54.8°F12.7°C 98% 6.8 mph ESE10.9 kmh ESE 17.4 mph28.0 kmh 29.91 in1012.9 mb 0.04 in1.0 mm 0.00 in0.0 mm 0.50 in12.7 mm
07:04 AM 55.5°F13.1°C 54.8°F12.7°C 98% 7.4 mph E11.9 kmh E 15.2 mph24.5 kmh 29.91 in1012.9 mb 0.04 in1.0 mm 0.00 in0.0 mm 0.50 in12.7 mm
07:09 AM 55.5°F13.1°C 54.8°F12.7°C 98% 12.6 mph SE20.3 kmh SE 15.2 mph24.5 kmh 29.91 in1012.9 mb 0.04 in1.0 mm 0.00 in0.0 mm 0.50 in12.7 mm
07:14 AM 55.5°F13.1°C 54.8°F12.7°C 98% 5.3 mph E8.5 kmh E 14.4 mph23.2 kmh 29.91 in1012.9 mb 0.04 in1.0 mm 0.00 in0.0 mm 0.50 in12.7 mm
07:20 AM 55.5°F13.1°C 54.8°F12.7°C 98% 6.7 mph E10.8 kmh E 14.4 mph23.2 kmh 29.91 in1012.9 mb 0.04 in1.0 mm 0.00 in0.0 mm 0.50 in12.7 mm
07:25 AM 55.5°F13.1°C 54.8°F12.7°C 98% 4.6 mph E7.4 kmh E 11.2 mph18.0 kmh 29.91 in1012.9 mb 0.04 in1.0 mm 0.00 in0.0 mm 0.50 in12.7 mm
07:30 AM 55.5°F13.1°C 54.8°F12.7°C 98% 5.4 mph SE8.7 kmh SE 8.0 mph12.9 kmh 29.91 in1012.9 mb 0.04 in1.0 mm 0.00 in0.0 mm 0.50 in12.7 mm
07:35 AM 55.5°F13.1°C 54.8°F12.7°C 98% 11.1 mph ENE17.9 kmh ENE 11.6 mph18.7 kmh 29.91 in1012.9 mb 0.04 in1.0 mm 0.00 in0.0 mm 0.50 in12.7 mm
07:40 AM 55.5°F13.1°C 54.8°F12.7°C 98% 5.2 mph E8.4 kmh E 11.6 mph18.7 kmh 29.91 in1012.9 mb 0.04 in1.0 mm 0.00 in0.0 mm 0.50 in12.7 mm
07:45 AM 55.5°F13.1°C 54.8°F12.7°C 98% 4.2 mph E6.8 kmh E 6.8 mph10.9 kmh 29.91 in1012.9 mb 0.04 in1.0 mm 0.00 in0.0 mm 0.50 in12.7 mm
07:50 AM 55.7°F13.2°C 55.0°F12.8°C 98% 5.9 mph ENE9.5 kmh ENE 6.8 mph10.9 kmh 29.91 in1012.9 mb 0.04 in1.0 mm 0.00 in0.0 mm 0.50 in12.7 mm
07:55 AM 55.7°F13.2°C 55.0°F12.8°C 98% 3.1 mph E5.0 kmh E 7.2 mph11.6 kmh 29.91 in1012.9 mb 0.00 in0.0 mm 0.00 in0.0 mm 0.50 in12.7 mm
08:00 AM 55.7°F13.2°C 55.0°F12.8°C 98% 6.6 mph E10.6 kmh E 10.8 mph17.4 kmh 29.91 in1012.9 mb 0.00 in0.0 mm 0.00 in0.0 mm 0.50 in12.7 mm
08:05 AM 55.7°F13.2°C 55.0°F12.8°C 98% 9.7 mph ENE15.6 kmh ENE 11.6 mph18.7 kmh 29.91 in1012.9 mb 0.00 in0.0 mm 0.00 in0.0 mm 0.50 in12.7 mm
08:10 AM 55.7°F13.2°C 55.0°F12.8°C 98% 5.5 mph E8.9 kmh E 11.6 mph18.7 kmh 29.91 in1012.9 mb 0.00 in0.0 mm 0.00 in0.0 mm 0.50 in12.7 mm
08:15 AM 55.7°F13.2°C 55.0°F12.8°C 98% 6.3 mph ENE10.1 kmh ENE 8.6 mph13.8 kmh 29.91 in1012.9 mb 0.00 in0.0 mm 0.00 in0.0 mm 0.50 in12.7 mm
08:21 AM 55.7°F13.2°C 55.0°F12.8°C 98% 7.2 mph ENE11.6 kmh ENE 8.6 mph13.8 kmh 29.91 in1012.9 mb 0.00 in0.0 mm 0.00 in0.0 mm 0.50 in12.7 mm
08:26 AM 55.8°F13.2°C 55.1°F12.8°C 98% 6.5 mph NE10.5 kmh NE 7.2 mph11.6 kmh 29.91 in1012.9 mb 0.00 in0.0 mm 0.00 in0.0 mm 0.50 in12.7 mm
08:32 AM 55.8°F13.2°C 55.1°F12.8°C 98% 5.8 mph NE9.3 kmh NE 7.2 mph11.6 kmh 29.91 in1012.9 mb 0.00 in0.0 mm 0.00 in0.0 mm 0.50 in12.7 mm
08:37 AM 55.8°F13.2°C 55.1°F12.8°C 98% 5.8 mph NE9.3 kmh NE 5.8 mph9.3 kmh 29.88 in1011.9 mb 0.00 in0.0 mm 0.00 in0.0 mm 0.50 in12.7 mm
08:42 AM 55.8°F13.2°C 55.1°F12.8°C 98% 5.8 mph NE9.3 kmh NE 5.8 mph9.3 kmh 29.88 in1011.9 mb 0.00 in0.0 mm 0.00 in0.0 mm 0.50 in12.7 mm
08:47 AM 56.0°F13.3°C 55.3°F12.9°C 98% 5.8 mph NE9.3 kmh NE 5.8 mph9.3 kmh 29.88 in1011.9 mb 0.00 in0.0 mm 0.00 in0.0 mm 0.50 in12.7 mm
08:52 AM 56.0°F13.3°C 55.3°F12.9°C 98% 5.8 mph NE9.3 kmh NE 5.8 mph9.3 kmh 29.91 in1012.9 mb 0.00 in0.0 mm 0.00 in0.0 mm 0.50 in12.7 mm
08:57 AM 56.2°F13.4°C 55.5°F13.1°C 98% 5.8 mph NE9.3 kmh NE 5.8 mph9.3 kmh 29.91 in1012.9 mb 0.00 in0.0 mm 0.00 in0.0 mm 0.50 in12.7 mm
09:03 AM 56.2°F13.4°C 55.5°F13.1°C 98% 5.8 mph NE9.3 kmh NE 5.8 mph9.3 kmh 29.91 in1012.9 mb 0.00 in0.0 mm 0.00 in0.0 mm 0.50 in12.7 mm
09:08 AM 56.4°F13.6°C 55.7°F13.2°C 98% 5.8 mph NE9.3 kmh NE 5.8 mph9.3 kmh 29.88 in1011.9 mb 0.00 in0.0 mm 0.00 in0.0 mm 0.50 in12.7 mm
09:13 AM 56.6°F13.7°C 55.9°F13.3°C 98% 5.8 mph NE9.3 kmh NE 5.8 mph9.3 kmh 29.88 in1011.9 mb 0.00 in0.0 mm 0.00 in0.0 mm 0.50 in12.7 mm
09:18 AM 56.6°F13.7°C 55.9°F13.3°C 98% 5.8 mph NE9.3 kmh NE 5.8 mph9.3 kmh 29.88 in1011.9 mb 0.00 in0.0 mm 0.00 in0.0 mm 0.50 in12.7 mm
09:23 AM 56.7°F13.7°C 56.0°F13.3°C 98% 5.8 mph NE9.3 kmh NE 5.8 mph9.3 kmh 29.91 in1012.9 mb 0.00 in0.0 mm 0.00 in0.0 mm 0.50 in12.7 mm
09:28 AM 56.9°F13.8°C 56.2°F13.4°C 98% 5.8 mph NE9.3 kmh NE 5.8 mph9.3 kmh 29.91 in1012.9 mb 0.00 in0.0 mm 0.00 in0.0 mm 0.50 in12.7 mm
09:34 AM 57.1°F13.9°C 56.4°F13.6°C 98% 5.8 mph NE9.3 kmh NE 5.8 mph9.3 kmh 29.91 in1012.9 mb 0.00 in0.0 mm 0.00 in0.0 mm 0.50 in12.7 mm
09:39 AM 57.5°F14.2°C 56.8°F13.8°C 98% 5.8 mph NE9.3 kmh NE 5.8 mph9.3 kmh 29.91 in1012.9 mb 0.00 in0.0 mm 0.00 in0.0 mm 0.50 in12.7 mm
09:44 AM 57.5°F14.2°C 56.8°F13.8°C 98% 5.8 mph NE9.3 kmh NE 5.8 mph9.3 kmh 29.91 in1012.9 mb 0.00 in0.0 mm 0.00 in0.0 mm 0.50 in12.7 mm
09:49 AM 57.6°F14.2°C 56.9°F13.8°C 98% 5.8 mph NE9.3 kmh NE 5.8 mph9.3 kmh 29.91 in1012.9 mb 0.00 in0.0 mm 0.00 in0.0 mm 0.50 in12.7 mm
09:55 AM 57.8°F14.3°C 57.1°F13.9°C 98% 5.8 mph NE9.3 kmh NE 5.8 mph9.3 kmh 29.91 in1012.9 mb 0.00 in0.0 mm 0.00 in0.0 mm 0.50 in12.7 mm
10:00 AM 58.0°F14.4°C 57.3°F14.1°C 98% 5.8 mph NE9.3 kmh NE 5.8 mph9.3 kmh 29.91 in1012.9 mb 0.00 in0.0 mm 0.00 in0.0 mm 0.50 in12.7 mm
10:05 AM 58.2°F14.6°C 57.5°F14.2°C 98% 5.8 mph NE9.3 kmh NE 5.8 mph9.3 kmh 29.88 in1011.9 mb 0.00 in0.0 mm 0.00 in0.0 mm 0.50 in12.7 mm
10:11 AM 58.7°F14.8°C 58.0°F14.4°C 98% 5.8 mph NE9.3 kmh NE 5.8 mph9.3 kmh 29.88 in1011.9 mb 0.00 in0.0 mm 0.00 in0.0 mm 0.50 in12.7 mm
10:16 AM 58.9°F14.9°C 58.2°F14.6°C 98% 5.8 mph NE9.3 kmh NE 5.8 mph9.3 kmh 29.88 in1011.9 mb 0.00 in0.0 mm 0.00 in0.0 mm 0.50 in12.7 mm
10:21 AM 59.1°F15.1°C 58.4°F14.7°C 98% 5.8 mph NE9.3 kmh NE 5.8 mph9.3 kmh 29.91 in1012.9 mb 0.00 in0.0 mm 0.00 in0.0 mm 0.50 in12.7 mm
10:26 AM 59.4°F15.2°C 58.7°F14.8°C 98% 5.8 mph NE9.3 kmh NE 5.8 mph9.3 kmh 29.91 in1012.9 mb 0.00 in0.0 mm 0.00 in0.0 mm 0.50 in12.7 mm
10:31 AM 59.6°F15.3°C 58.9°F14.9°C 98% 5.8 mph NE9.3 kmh NE 5.8 mph9.3 kmh 29.91 in1012.9 mb 0.00 in0.0 mm 0.00 in0.0 mm 0.50 in12.7 mm
10:36 AM 59.9°F15.5°C 59.3°F15.2°C 98% 5.8 mph NE9.3 kmh NE 5.8 mph9.3 kmh 29.91 in1012.9 mb 0.00 in0.0 mm 0.00 in0.0 mm 0.50 in12.7 mm
10:41 AM 59.9°F15.5°C 59.3°F15.2°C 98% 5.8 mph NE9.3 kmh NE 5.8 mph9.3 kmh 29.91 in1012.9 mb 0.00 in0.0 mm 0.00 in0.0 mm 0.50 in12.7 mm
10:47 AM 60.2°F15.7°C 59.6°F15.3°C 98% 5.8 mph NE9.3 kmh NE 5.8 mph9.3 kmh 29.91 in1012.9 mb 0.00 in0.0 mm 0.00 in0.0 mm 0.50 in12.7 mm
10:52 AM 60.6°F15.9°C 60.0°F15.6°C 98% 5.8 mph NE9.3 kmh NE 5.8 mph9.3 kmh 29.91 in1012.9 mb 0.00 in0.0 mm 0.00 in0.0 mm 0.50 in12.7 mm
10:57 AM 60.6°F15.9°C 60.0°F15.6°C 98% 5.8 mph NE9.3 kmh NE 5.8 mph9.3 kmh 29.91 in1012.9 mb 0.00 in0.0 mm 0.00 in0.0 mm 0.50 in12.7 mm
11:02 AM 60.6°F15.9°C 60.0°F15.6°C 98% 5.8 mph NE9.3 kmh NE 5.8 mph9.3 kmh 29.91 in1012.9 mb 0.00 in0.0 mm 0.00 in0.0 mm 0.50 in12.7 mm
11:08 AM 60.8°F16.0°C 60.2°F15.7°C 98% 5.8 mph NE9.3 kmh NE 5.8 mph9.3 kmh 29.91 in1012.9 mb 0.00 in0.0 mm 0.00 in0.0 mm 0.50 in12.7 mm
11:13 AM 60.8°F16.0°C 60.2°F15.7°C 98% 5.8 mph NE9.3 kmh NE 5.8 mph9.3 kmh 29.91 in1012.9 mb 0.00 in0.0 mm 0.00 in0.0 mm 0.50 in12.7 mm
11:18 AM 60.8°F16.0°C 60.2°F15.7°C 98% 5.8 mph NE9.3 kmh NE 5.8 mph9.3 kmh 29.91 in1012.9 mb 0.00 in0.0 mm 0.00 in0.0 mm 0.50 in12.7 mm
11:23 AM 61.0°F16.1°C 60.4°F15.8°C 98% 5.8 mph NE9.3 kmh NE 5.8 mph9.3 kmh 29.88 in1011.9 mb 0.00 in0.0 mm 0.00 in0.0 mm 0.50 in12.7 mm
11:28 AM 60.8°F16.0°C 60.2°F15.7°C 98% 5.8 mph NE9.3 kmh NE 5.8 mph9.3 kmh 29.88 in1011.9 mb 0.00 in0.0 mm 0.00 in0.0 mm 0.50 in12.7 mm
11:33 AM 60.8°F16.0°C 60.2°F15.7°C 98% 5.8 mph NE9.3 kmh NE 5.8 mph9.3 kmh 29.88 in1011.9 mb 0.00 in0.0 mm 0.00 in0.0 mm 0.50 in12.7 mm
11:38 AM 60.8°F16.0°C 60.2°F15.7°C 98% 5.8 mph NE9.3 kmh NE 5.8 mph9.3 kmh 29.88 in1011.9 mb 0.00 in0.0 mm 0.00 in0.0 mm 0.50 in12.7 mm
11:43 AM 60.8°F16.0°C 60.2°F15.7°C 98% 5.8 mph NE9.3 kmh NE 5.8 mph9.3 kmh 29.88 in1011.9 mb 0.00 in0.0 mm 0.00 in0.0 mm 0.50 in12.7 mm
11:48 AM 60.8°F16.0°C 60.2°F15.7°C 98% 5.8 mph NE9.3 kmh NE 5.8 mph9.3 kmh 29.88 in1011.9 mb 0.00 in0.0 mm 0.00 in0.0 mm 0.50 in12.7 mm
11:53 AM 60.8°F16.0°C 60.2°F15.7°C 98% 5.8 mph NE9.3 kmh NE 5.8 mph9.3 kmh 29.88 in1011.9 mb 0.00 in0.0 mm 0.00 in0.0 mm 0.50 in12.7 mm
11:59 AM 60.8°F16.0°C 60.2°F15.7°C 98% 7.2 mph ENE11.6 kmh ENE 11.2 mph18.0 kmh 29.88 in1011.9 mb 0.00 in0.0 mm 0.00 in0.0 mm 0.50 in12.7 mm
12:04 PM 60.8°F16.0°C 60.2°F15.7°C 98% 7.2 mph ENE11.6 kmh ENE 11.2 mph18.0 kmh 29.88 in1011.9 mb 0.00 in0.0 mm 0.00 in0.0 mm 0.50 in12.7 mm
12:09 PM 61.1°F16.2°C 60.5°F15.8°C 98% 7.2 mph ENE11.6 kmh ENE 7.2 mph11.6 kmh 29.88 in1011.9 mb 0.00 in0.0 mm 0.00 in0.0 mm 0.50 in12.7 mm
12:14 PM 61.1°F16.2°C 60.5°F15.8°C 98% 7.2 mph ENE11.6 kmh ENE 7.2 mph11.6 kmh 29.88 in1011.9 mb 0.00 in0.0 mm 0.00 in0.0 mm 0.50 in12.7 mm
12:21 PM 61.1°F16.2°C 60.5°F15.8°C 98% 7.2 mph ENE11.6 kmh ENE 7.2 mph11.6 kmh 29.85 in1010.8 mb 0.00 in0.0 mm 0.00 in0.0 mm 0.50 in12.7 mm
12:26 PM 61.0°F16.1°C 60.4°F15.8°C 98% 5.9 mph SE9.5 kmh SE 7.2 mph11.6 kmh 29.85 in1010.8 mb 0.00 in0.0 mm 0.00 in0.0 mm 0.50 in12.7 mm
12:31 PM 61.0°F16.1°C 60.4°F15.8°C 98% 13.0 mph ESE20.9 kmh ESE 13.0 mph20.9 kmh 29.85 in1010.8 mb 0.04 in1.0 mm 0.48 in12.2 mm 0.54 in13.7 mm
12:36 PM 61.1°F16.2°C 60.5°F15.8°C 98% 13.0 mph ESE20.9 kmh ESE 13.0 mph20.9 kmh 29.85 in1010.8 mb 0.04 in1.0 mm 0.00 in0.0 mm 0.54 in13.7 mm
12:41 PM 61.3°F16.3°C 60.7°F15.9°C 98% 13.0 mph ESE20.9 kmh ESE 13.0 mph20.9 kmh 29.85 in1010.8 mb 0.04 in1.0 mm 0.00 in0.0 mm 0.54 in13.7 mm
12:46 PM 61.5°F16.4°C 60.9°F16.1°C 98% 13.0 mph ESE20.9 kmh ESE 13.0 mph20.9 kmh 29.85 in1010.8 mb 0.04 in1.0 mm 0.00 in0.0 mm 0.54 in13.7 mm
12:52 PM 61.5°F16.4°C 60.9°F16.1°C 98% 13.0 mph ESE20.9 kmh ESE 13.0 mph20.9 kmh 29.85 in1010.8 mb 0.00 in0.0 mm 0.00 in0.0 mm 0.54 in13.7 mm
12:57 PM 61.5°F16.4°C 60.9°F16.1°C 98% 9.9 mph ESE15.9 kmh ESE 13.0 mph20.9 kmh 29.85 in1010.8 mb 0.00 in0.0 mm 0.00 in0.0 mm 0.54 in13.7 mm
01:03 PM 61.5°F16.4°C 60.9°F16.1°C 98% 10.8 mph ENE17.4 kmh ENE 10.8 mph17.4 kmh 29.85 in1010.8 mb 0.00 in0.0 mm 0.00 in0.0 mm 0.54 in13.7 mm
01:08 PM 61.3°F16.3°C 60.7°F15.9°C 98% 10.8 mph ENE17.4 kmh ENE 10.8 mph17.4 kmh 29.85 in1010.8 mb 0.00 in0.0 mm 0.00 in0.0 mm 0.54 in13.7 mm
01:13 PM 61.5°F16.4°C 60.9°F16.1°C 98% 10.8 mph ENE17.4 kmh ENE 10.8 mph17.4 kmh 29.85 in1010.8 mb 0.00 in0.0 mm 0.00 in0.0 mm 0.54 in13.7 mm
01:18 PM 61.7°F16.5°C 61.1°F16.2°C 98% 10.8 mph ENE17.4 kmh ENE 10.8 mph17.4 kmh 29.85 in1010.8 mb 0.00 in0.0 mm 0.00 in0.0 mm 0.54 in13.7 mm
01:23 PM 61.7°F16.5°C 61.1°F16.2°C 98% 10.8 mph ENE17.4 kmh ENE 10.8 mph17.4 kmh 29.88 in1011.9 mb 0.00 in0.0 mm 0.00 in0.0 mm 0.54 in13.7 mm
01:28 PM 61.9°F16.6°C 61.3°F16.3°C 98% 10.8 mph ENE17.4 kmh ENE 10.8 mph17.4 kmh 29.88 in1011.9 mb 0.00 in0.0 mm 0.00 in0.0 mm 0.54 in13.7 mm
01:34 PM 62.2°F16.8°C 61.6°F16.4°C 98% 10.8 mph ENE17.4 kmh ENE 10.8 mph17.4 kmh 29.88 in1011.9 mb 0.00 in0.0 mm 0.00 in0.0 mm 0.54 in13.7 mm
01:39 PM 62.6°F17.0°C 62.0°F16.7°C 98% 10.8 mph ENE17.4 kmh ENE 10.8 mph17.4 kmh 29.85 in1010.8 mb 0.00 in0.0 mm 0.00 in0.0 mm 0.54 in13.7 mm
01:44 PM 62.4°F16.9°C 61.8°F16.6°C 98% 10.8 mph ENE17.4 kmh ENE 10.8 mph17.4 kmh 29.85 in1010.8 mb 0.00 in0.0 mm 0.00 in0.0 mm 0.54 in13.7 mm
01:49 PM 62.4°F16.9°C 61.8°F16.6°C 98% 10.8 mph ENE17.4 kmh ENE 10.8 mph17.4 kmh 29.85 in1010.8 mb 0.00 in0.0 mm 0.00 in0.0 mm 0.54 in13.7 mm
01:55 PM 62.6°F17.0°C 62.0°F16.7°C 98% 9.8 mph SE15.8 kmh SE 14.8 mph23.8 kmh 29.85 in1010.8 mb 0.00 in0.0 mm 0.00 in0.0 mm 0.54 in13.7 mm
01:59 PM 62.4°F16.9°C 61.8°F16.6°C 98% 7.6 mph E12.2 kmh E 14.8 mph23.8 kmh 29.85 in1010.8 mb 0.00 in0.0 mm 0.00 in0.0 mm 0.54 in13.7 mm
02:04 PM 62.8°F17.1°C 62.2°F16.8°C 98% 5.9 mph ESE9.5 kmh ESE 7.6 mph12.2 kmh 29.85 in1010.8 mb 0.00 in0.0 mm 0.00 in0.0 mm 0.54 in13.7 mm
02:10 PM 62.9°F17.2°C 62.3°F16.8°C 98% 5.8 mph SSE9.3 kmh SSE 7.2 mph11.6 kmh 29.85 in1010.8 mb 0.00 in0.0 mm 0.00 in0.0 mm 0.54 in13.7 mm
02:15 PM 63.1°F17.3°C 62.5°F16.9°C 98% 11.2 mph SSE18.0 kmh SSE 13.0 mph20.9 kmh 29.85 in1010.8 mb 0.00 in0.0 mm 0.00 in0.0 mm 0.54 in13.7 mm
02:20 PM 63.5°F17.5°C 62.9°F17.2°C 98% 6.8 mph SSE10.9 kmh SSE 11.2 mph18.0 kmh 29.85 in1010.8 mb 0.00 in0.0 mm 0.00 in0.0 mm 0.54 in13.7 mm
02:26 PM 63.3°F17.4°C 62.7°F17.1°C 98% 7.2 mph SE11.6 kmh SE 11.2 mph18.0 kmh 29.85 in1010.8 mb 0.00 in0.0 mm 0.00 in0.0 mm 0.54 in13.7 mm
02:31 PM 63.5°F17.5°C 62.9°F17.2°C 98% 7.2 mph SE11.6 kmh SE 11.2 mph18.0 kmh 29.85 in1010.8 mb 0.00 in0.0 mm 0.00 in0.0 mm 0.54 in13.7 mm
02:36 PM 63.8°F17.7°C 63.2°F17.3°C 98% 6.5 mph ESE10.5 kmh ESE 11.2 mph18.0 kmh 29.83 in1010.2 mb 0.00 in0.0 mm 0.00 in0.0 mm 0.54 in13.7 mm
02:41 PM 63.7°F17.6°C 63.1°F17.3°C 98% 7.6 mph ESE12.2 kmh ESE 9.8 mph15.8 kmh 29.83 in1010.2 mb 0.00 in0.0 mm 0.00 in0.0 mm 0.54 in13.7 mm
02:46 PM 63.7°F17.6°C 63.1°F17.3°C 98% 5.6 mph ESE9.0 kmh ESE 9.8 mph15.8 kmh 29.83 in1010.2 mb 0.00 in0.0 mm 0.00 in0.0 mm 0.54 in13.7 mm
02:51 PM 63.8°F17.7°C 63.2°F17.3°C 98% 6.2 mph SSE10.0 kmh SSE 13.0 mph20.9 kmh 29.83 in1010.2 mb 0.00 in0.0 mm 0.00 in0.0 mm 0.54 in13.7 mm
02:56 PM 63.8°F17.7°C 63.2°F17.3°C 98% 6.2 mph SE10.0 kmh SE 13.0 mph20.9 kmh 29.83 in1010.2 mb 0.00 in0.0 mm 0.00 in0.0 mm 0.54 in13.7 mm
03:01 PM 63.8°F17.7°C 63.2°F17.3°C 98% 7.1 mph ESE11.4 kmh ESE 12.6 mph20.3 kmh 29.83 in1010.2 mb 0.00 in0.0 mm 0.00 in0.0 mm 0.54 in13.7 mm
03:07 PM 64.6°F18.1°C 64.0°F17.8°C 98% 6.9 mph ESE11.1 kmh ESE 12.6 mph20.3 kmh 29.80 in1009.1 mb 0.00 in0.0 mm 0.00 in0.0 mm 0.54 in13.7 mm
03:12 PM 64.9°F18.3°C 64.3°F17.9°C 98% 4.7 mph E7.6 kmh E 12.0 mph19.3 kmh 29.80 in1009.1 mb 0.00 in0.0 mm 0.00 in0.0 mm 0.54 in13.7 mm
03:18 PM 66.0°F18.9°C 65.4°F18.6°C 98% 6.4 mph ENE10.3 kmh ENE 12.0 mph19.3 kmh 29.80 in1009.1 mb 0.00 in0.0 mm 0.00 in0.0 mm 0.54 in13.7 mm
03:23 PM 66.4°F19.1°C 65.8°F18.8°C 98% 5.6 mph ESE9.0 kmh ESE 9.0 mph14.5 kmh 29.80 in1009.1 mb 0.00 in0.0 mm 0.00 in0.0 mm 0.54 in13.7 mm
03:28 PM 66.4°F19.1°C 65.5°F18.6°C 97% 6.2 mph ENE10.0 kmh ENE 9.8 mph15.8 kmh 29.80 in1009.1 mb 0.00 in0.0 mm 0.00 in0.0 mm 0.54 in13.7 mm
03:33 PM 66.2°F19.0°C 65.0°F18.3°C 96% 6.9 mph ESE11.1 kmh ESE 9.8 mph15.8 kmh 29.80 in1009.1 mb 0.00 in0.0 mm 0.00 in0.0 mm 0.54 in13.7 mm
03:39 PM 66.9°F19.4°C 65.7°F18.7°C 96% 7.2 mph SE11.6 kmh SE 9.8 mph15.8 kmh 29.77 in1008.1 mb 0.00 in0.0 mm 0.00 in0.0 mm 0.54 in13.7 mm
03:44 PM 67.4°F19.7°C 65.5°F18.6°C 94% 9.0 mph ESE14.5 kmh ESE 14.4 mph23.2 kmh 29.77 in1008.1 mb 0.00 in0.0 mm 0.00 in0.0 mm 0.54 in13.7 mm
03:49 PM 67.1°F19.5°C 65.2°F18.4°C 94% 6.2 mph E10.0 kmh E 14.4 mph23.2 kmh 29.77 in1008.1 mb 0.00 in0.0 mm 0.00 in0.0 mm 0.54 in13.7 mm
03:54 PM 66.7°F19.3°C 64.8°F18.2°C 94% 4.9 mph E7.9 kmh E 11.2 mph18.0 kmh 29.80 in1009.1 mb 0.00 in0.0 mm 0.00 in0.0 mm 0.54 in13.7 mm
03:59 PM 66.9°F19.4°C 65.0°F18.3°C 94% 5.9 mph SE9.5 kmh SE 11.2 mph18.0 kmh 29.80 in1009.1 mb 0.00 in0.0 mm 0.00 in0.0 mm 0.54 in13.7 mm
04:04 PM 67.1°F19.5°C 65.2°F18.4°C 94% 7.3 mph SE11.7 kmh SE 10.8 mph17.4 kmh 29.80 in1009.1 mb 0.00 in0.0 mm 0.00 in0.0 mm 0.54 in13.7 mm
04:10 PM 66.7°F19.3°C 64.8°F18.2°C 94% 5.0 mph ENE8.0 kmh ENE 10.8 mph17.4 kmh 29.80 in1009.1 mb 0.00 in0.0 mm 0.00 in0.0 mm 0.54 in13.7 mm
04:15 PM 67.3°F19.6°C 65.4°F18.6°C 94% 4.8 mph ENE7.7 kmh ENE 7.2 mph11.6 kmh 29.80 in1009.1 mb 0.00 in0.0 mm 0.00 in0.0 mm 0.54 in13.7 mm
04:20 PM 69.4°F20.8°C 67.2°F19.6°C 93% 6.3 mph NE10.1 kmh NE 10.8 mph17.4 kmh 29.80 in1009.1 mb 0.00 in0.0 mm 0.00 in0.0 mm 0.54 in13.7 mm
04:25 PM 70.7°F21.5°C 67.6°F19.8°C 90% 8.6 mph NE13.8 kmh NE 11.6 mph18.7 kmh 29.80 in1009.1 mb 0.00 in0.0 mm 0.00 in0.0 mm 0.54 in13.7 mm
04:32 PM 67.3°F19.6°C 63.9°F17.7°C 89% 5.4 mph NE8.7 kmh NE 13.0 mph20.9 kmh 29.80 in1009.1 mb 0.00 in0.0 mm 0.00 in0.0 mm 0.54 in13.7 mm
04:37 PM 68.0°F20.0°C 64.9°F18.3°C 90% 11.3 mph NE18.2 kmh NE 13.0 mph20.9 kmh 29.80 in1009.1 mb 0.00 in0.0 mm 0.00 in0.0 mm 0.54 in13.7 mm
04:43 PM 67.6°F19.8°C 64.5°F18.1°C 90% 7.0 mph ENE11.3 kmh ENE 12.6 mph20.3 kmh 29.80 in1009.1 mb 0.00 in0.0 mm 0.00 in0.0 mm 0.54 in13.7 mm
04:48 PM 67.4°F19.7°C 64.6°F18.1°C 91% 7.8 mph ENE12.6 kmh ENE 12.0 mph19.3 kmh 29.80 in1009.1 mb 0.00 in0.0 mm 0.00 in0.0 mm 0.54 in13.7 mm
04:53 PM 67.6°F19.8°C 64.8°F18.2°C 91% 5.1 mph ESE8.2 kmh ESE 12.0 mph19.3 kmh 29.77 in1008.1 mb 0.00 in0.0 mm 0.00 in0.0 mm 0.54 in13.7 mm
04:58 PM 67.6°F19.8°C 64.5°F18.1°C 90% 5.1 mph NE8.2 kmh NE 11.2 mph18.0 kmh 29.77 in1008.1 mb 0.00 in0.0 mm 0.00 in0.0 mm 0.54 in13.7 mm
05:03 PM 67.3°F19.6°C 64.5°F18.1°C 91% 4.4 mph ENE7.1 kmh ENE 5.4 mph8.7 kmh 29.77 in1008.1 mb 0.00 in0.0 mm 0.00 in0.0 mm 0.54 in13.7 mm
05:08 PM 66.9°F19.4°C 64.1°F17.8°C 91% 6.1 mph ENE9.8 kmh ENE 7.2 mph11.6 kmh 29.80 in1009.1 mb 0.00 in0.0 mm 0.00 in0.0 mm 0.54 in13.7 mm
05:13 PM 66.2°F19.0°C 63.7°F17.6°C 92% 5.3 mph NE8.5 kmh NE 7.2 mph11.6 kmh 29.80 in1009.1 mb 0.00 in0.0 mm 0.00 in0.0 mm 0.54 in13.7 mm
05:18 PM 66.0°F18.9°C 63.5°F17.5°C 92% 4.4 mph NE7.1 kmh NE 7.2 mph11.6 kmh 29.80 in1009.1 mb 0.00 in0.0 mm 0.00 in0.0 mm 0.54 in13.7 mm
05:23 PM 65.6°F18.7°C 63.5°F17.5°C 93% 5.9 mph NE9.5 kmh NE 7.6 mph12.2 kmh 29.77 in1008.1 mb 0.00 in0.0 mm 0.00 in0.0 mm 0.54 in13.7 mm
05:28 PM 65.1°F18.4°C 63.3°F17.4°C 94% 5.8 mph NNE9.3 kmh NNE 7.6 mph12.2 kmh 29.77 in1008.1 mb 0.00 in0.0 mm 0.00 in0.0 mm 0.54 in13.7 mm
05:33 PM 64.7°F18.2°C 63.2°F17.3°C 95% 5.0 mph 8.0 kmh 7.6 mph12.2 kmh 29.77 in1008.1 mb 0.00 in0.0 mm 0.00 in0.0 mm 0.54 in13.7 mm
05:38 PM 64.4°F18.0°C 62.9°F17.2°C 95% 5.0 mph 8.0 kmh 7.2 mph11.6 kmh 29.80 in1009.1 mb 0.00 in0.0 mm 0.00 in0.0 mm 0.54 in13.7 mm
05:43 PM 64.0°F17.8°C 62.8°F17.1°C 96% 7.7 mph NNE12.4 kmh NNE 11.6 mph18.7 kmh 29.80 in1009.1 mb 0.00 in0.0 mm 0.00 in0.0 mm 0.54 in13.7 mm
05:48 PM 63.7°F17.6°C 62.8°F17.1°C 97% 11.6 mph NNE18.7 kmh NNE 11.6 mph18.7 kmh 29.80 in1009.1 mb 0.00 in0.0 mm 0.00 in0.0 mm 0.54 in13.7 mm
05:54 PM 62.9°F17.2°C 62.3°F16.8°C 98% 11.6 mph NNE18.7 kmh NNE 11.6 mph18.7 kmh 29.80 in1009.1 mb 0.00 in0.0 mm 0.00 in0.0 mm 0.54 in13.7 mm
05:59 PM 62.8°F17.1°C 62.2°F16.8°C 98% 11.6 mph NNE18.7 kmh NNE 11.6 mph18.7 kmh 29.80 in1009.1 mb 0.04 in1.0 mm 0.48 in12.2 mm 0.58 in14.7 mm
06:05 PM 62.2°F16.8°C 61.6°F16.4°C 98% 6.8 mph NNE10.9 kmh NNE 11.6 mph18.7 kmh 29.80 in1009.1 mb 0.08 in2.0 mm 0.04 in1.0 mm 0.62 in15.7 mm
06:10 PM 62.0°F16.7°C 61.4°F16.3°C 98% 6.7 mph 10.8 kmh 7.6 mph12.2 kmh 29.80 in1009.1 mb 0.13 in3.3 mm 0.60 in15.2 mm 0.66 in16.8 mm
06:15 PM 61.9°F16.6°C 61.3°F16.3°C 98% 7.6 mph 12.2 kmh 7.6 mph12.2 kmh 29.80 in1009.1 mb 0.17 in4.3 mm 0.48 in12.2 mm 0.70 in17.8 mm
06:20 PM 61.7°F16.5°C 61.1°F16.2°C 98% 7.6 mph 12.2 kmh 7.6 mph12.2 kmh 29.80 in1009.1 mb 0.17 in4.3 mm 0.00 in0.0 mm 0.70 in17.8 mm
06:27 PM 61.5°F16.4°C 60.9°F16.1°C 98% 3.3 mph N5.3 kmh N 7.6 mph12.2 kmh 29.80 in1009.1 mb 0.21 in5.3 mm 0.34 in8.6 mm 0.75 in19.1 mm
06:32 PM 61.5°F16.4°C 60.9°F16.1°C 98% 4.0 mph ESE6.4 kmh ESE 7.6 mph12.2 kmh 29.80 in1009.1 mb 0.25 in6.4 mm 0.48 in12.2 mm 0.79 in20.1 mm
06:37 PM 61.5°F16.4°C 60.9°F16.1°C 98% 4.0 mph ESE6.4 kmh ESE 7.6 mph12.2 kmh 29.80 in1009.1 mb 0.29 in7.4 mm 0.48 in12.2 mm 0.83 in21.1 mm
06:43 PM 61.3°F16.3°C 60.7°F15.9°C 98% 4.0 mph ESE6.4 kmh ESE 4.0 mph6.4 kmh 29.80 in1009.1 mb 0.33 in8.4 mm 0.40 in10.2 mm 0.87 in22.1 mm
06:48 PM 61.3°F16.3°C 60.7°F15.9°C 98% 4.0 mph ESE6.4 kmh ESE 4.0 mph6.4 kmh 29.80 in1009.1 mb 0.33 in8.4 mm 0.00 in0.0 mm 0.87 in22.1 mm
06:52 PM 61.3°F16.3°C 60.7°F15.9°C 98% 4.4 mph SW7.1 kmh SW 5.8 mph9.3 kmh 29.80 in1009.1 mb 0.04 in1.0 mm 0.00 in0.0 mm 0.91 in23.1 mm
06:58 PM 61.1°F16.2°C 60.5°F15.8°C 98% 4.7 mph NE7.6 kmh NE 17.4 mph28.0 kmh 29.80 in1009.1 mb 0.21 in5.3 mm 1.70 in43.2 mm 1.08 in27.4 mm
07:03 PM 61.0°F16.1°C 60.4°F15.8°C 98% 10.4 mph NNE16.7 kmh NNE 17.4 mph28.0 kmh 29.80 in1009.1 mb 0.29 in7.4 mm 0.09 in2.3 mm 1.16 in29.5 mm
07:08 PM 61.0°F16.1°C 60.4°F15.8°C 98% 2.8 mph NW4.5 kmh NW 17.4 mph28.0 kmh 29.80 in1009.1 mb 0.34 in8.6 mm 0.60 in15.2 mm 1.20 in30.5 mm
07:13 PM 61.0°F16.1°C 60.4°F15.8°C 98% 2.6 mph NW4.2 kmh NW 4.4 mph7.1 kmh 29.80 in1009.1 mb 0.34 in8.6 mm 0.00 in0.0 mm 1.20 in30.5 mm
07:18 PM 60.8°F16.0°C 60.2°F15.7°C 98% 2.6 mph NW4.2 kmh NW 2.6 mph4.2 kmh 29.80 in1009.1 mb 0.37 in9.4 mm 0.36 in9.1 mm 1.24 in31.5 mm
07:23 PM 60.8°F16.0°C 60.2°F15.7°C 98% 2.6 mph NW4.2 kmh NW 2.6 mph4.2 kmh 29.80 in1009.1 mb 0.37 in9.4 mm 0.00 in0.0 mm 1.24 in31.5 mm
07:29 PM 60.8°F16.0°C 60.2°F15.7°C 98% 2.6 mph NW4.2 kmh NW 2.6 mph4.2 kmh 29.80 in1009.1 mb 0.37 in9.4 mm 0.00 in0.0 mm 1.24 in31.5 mm
07:34 PM 60.6°F15.9°C 60.0°F15.6°C 98% 2.6 mph NW4.2 kmh NW 2.6 mph4.2 kmh 29.80 in1009.1 mb 0.37 in9.4 mm 0.00 in0.0 mm 1.24 in31.5 mm
07:39 PM 60.6°F15.9°C 60.0°F15.6°C 98% 3.8 mph N6.1 kmh N 5.4 mph8.7 kmh 29.77 in1008.1 mb 0.37 in9.4 mm 0.00 in0.0 mm 1.24 in31.5 mm
07:44 PM 60.6°F15.9°C 60.0°F15.6°C 98% 5.4 mph NNE8.7 kmh NNE 5.4 mph8.7 kmh 29.77 in1008.1 mb 0.37 in9.4 mm 0.00 in0.0 mm 1.24 in31.5 mm
07:51 PM 60.6°F15.9°C 60.0°F15.6°C 98% 5.4 mph NNE8.7 kmh NNE 5.4 mph8.7 kmh 29.77 in1008.1 mb 0.00 in0.0 mm 0.00 in0.0 mm 1.24 in31.5 mm
07:56 PM 60.6°F15.9°C 60.0°F15.6°C 98% 3.2 mph ENE5.1 kmh ENE 5.4 mph8.7 kmh 29.77 in1008.1 mb 0.00 in0.0 mm 0.00 in0.0 mm 1.24 in31.5 mm
08:01 PM 60.8°F16.0°C 60.2°F15.7°C 98% 3.2 mph ENE5.1 kmh ENE 5.4 mph8.7 kmh 29.77 in1008.1 mb 0.00 in0.0 mm 0.00 in0.0 mm 1.24 in31.5 mm
08:06 PM 60.8°F16.0°C 60.2°F15.7°C 98% 3.2 mph ENE5.1 kmh ENE 3.2 mph5.1 kmh 29.80 in1009.1 mb 0.00 in0.0 mm 0.00 in0.0 mm 1.24 in31.5 mm
08:11 PM 60.6°F15.9°C 60.0°F15.6°C 98% 8.2 mph ENE13.2 kmh ENE 8.6 mph13.8 kmh 29.80 in1009.1 mb 0.00 in0.0 mm 0.00 in0.0 mm 1.24 in31.5 mm
08:16 PM 60.6°F15.9°C 60.0°F15.6°C 98% 6.2 mph ENE10.0 kmh ENE 11.6 mph18.7 kmh 29.80 in1009.1 mb 0.04 in1.0 mm 0.48 in12.2 mm 1.29 in32.8 mm
08:22 PM 60.6°F15.9°C 60.0°F15.6°C 98% 4.4 mph E7.1 kmh E 11.6 mph18.7 kmh 29.80 in1009.1 mb 0.04 in1.0 mm 0.00 in0.0 mm 1.29 in32.8 mm
08:27 PM 60.6°F15.9°C 60.0°F15.6°C 98% 6.5 mph NE10.5 kmh NE 11.6 mph18.7 kmh 29.80 in1009.1 mb 0.04 in1.0 mm 0.00 in0.0 mm 1.29 in32.8 mm
08:32 PM 60.6°F15.9°C 60.0°F15.6°C 98% 5.3 mph ENE8.5 kmh ENE 11.6 mph18.7 kmh 29.80 in1009.1 mb 0.04 in1.0 mm 0.00 in0.0 mm 1.29 in32.8 mm
08:37 PM 60.6°F15.9°C 60.0°F15.6°C 98% 5.5 mph ENE8.9 kmh ENE 11.6 mph18.7 kmh 29.80 in1009.1 mb 0.04 in1.0 mm 0.00 in0.0 mm 1.29 in32.8 mm
08:42 PM 60.6°F15.9°C 60.0°F15.6°C 98% 5.7 mph E9.2 kmh E 8.0 mph12.9 kmh 29.80 in1009.1 mb 0.04 in1.0 mm 0.00 in0.0 mm 1.29 in32.8 mm
08:47 PM 60.6°F15.9°C 60.0°F15.6°C 98% 3.2 mph ENE5.1 kmh ENE 8.0 mph12.9 kmh 29.80 in1009.1 mb 0.04 in1.0 mm 0.00 in0.0 mm 1.29 in32.8 mm
08:52 PM 60.6°F15.9°C 60.0°F15.6°C 98% 5.0 mph ENE8.0 kmh ENE 7.2 mph11.6 kmh 29.80 in1009.1 mb 0.00 in0.0 mm 0.00 in0.0 mm 1.29 in32.8 mm
08:57 PM 60.6°F15.9°C 60.0°F15.6°C 98% 5.0 mph S8.0 kmh S 6.2 mph10.0 kmh 29.80 in1009.1 mb 0.00 in0.0 mm 0.00 in0.0 mm 1.29 in32.8 mm
09:02 PM 60.6°F15.9°C 60.0°F15.6°C 98% 2.6 mph SSW4.2 kmh SSW 6.2 mph10.0 kmh 29.80 in1009.1 mb 0.00 in0.0 mm 0.00 in0.0 mm 1.29 in32.8 mm
09:07 PM 60.4°F15.8°C 59.8°F15.4°C 98% 5.2 mph E8.4 kmh E 6.8 mph10.9 kmh 29.77 in1008.1 mb 0.00 in0.0 mm 0.00 in0.0 mm 1.29 in32.8 mm
09:13 PM 60.4°F15.8°C 59.8°F15.4°C 98% 1.9 mph E3.1 kmh E 6.8 mph10.9 kmh 29.77 in1008.1 mb 0.04 in1.0 mm 0.40 in10.2 mm 1.33 in33.8 mm
09:18 PM 60.4°F15.8°C 59.8°F15.4°C 98% 2.2 mph E3.5 kmh E 5.0 mph8.0 kmh 29.77 in1008.1 mb 0.04 in1.0 mm 0.00 in0.0 mm 1.33 in33.8 mm
09:23 PM 60.4°F15.8°C 59.8°F15.4°C 98% 4.6 mph E7.4 kmh E 5.0 mph8.0 kmh 29.80 in1009.1 mb 0.08 in2.0 mm 0.48 in12.2 mm 1.37 in34.8 mm
09:28 PM 60.4°F15.8°C 59.8°F15.4°C 98% 5.4 mph E8.7 kmh E 6.2 mph10.0 kmh 29.80 in1009.1 mb 0.08 in2.0 mm 0.00 in0.0 mm 1.37 in34.8 mm
09:34 PM 60.4°F15.8°C 59.8°F15.4°C 98% 3.2 mph ENE5.1 kmh ENE 6.2 mph10.0 kmh 29.80 in1009.1 mb 0.08 in2.0 mm 0.00 in0.0 mm 1.37 in34.8 mm
09:39 PM 60.4°F15.8°C 59.8°F15.4°C 98% 3.2 mph ENE5.1 kmh ENE 3.2 mph5.1 kmh 29.80 in1009.1 mb 0.08 in2.0 mm 0.00 in0.0 mm 1.37 in34.8 mm
09:45 PM 60.2°F15.7°C 59.6°F15.3°C 98% 3.2 mph ENE5.1 kmh ENE 3.2 mph5.1 kmh 29.80 in1009.1 mb 0.08 in2.0 mm 0.00 in0.0 mm 1.37 in34.8 mm
09:50 PM 60.2°F15.7°C 59.6°F15.3°C 98% 3.2 mph ENE5.1 kmh ENE 3.2 mph5.1 kmh 29.80 in1009.1 mb 0.13 in3.3 mm 0.60 in15.2 mm 1.41 in35.8 mm
09:55 PM 60.2°F15.7°C 59.6°F15.3°C 98% 3.2 mph ENE5.1 kmh ENE 3.2 mph5.1 kmh 29.80 in1009.1 mb 0.00 in0.0 mm 0.00 in0.0 mm 1.41 in35.8 mm
10:00 PM 60.2°F15.7°C 59.6°F15.3°C 98% 3.2 mph ENE5.1 kmh ENE 3.2 mph5.1 kmh 29.80 in1009.1 mb 0.00 in0.0 mm 0.00 in0.0 mm 1.41 in35.8 mm
10:05 PM 60.2°F15.7°C 59.6°F15.3°C 98% 3.2 mph ENE5.1 kmh ENE 3.2 mph5.1 kmh 29.80 in1009.1 mb 0.00 in0.0 mm 0.00 in0.0 mm 1.41 in35.8 mm
10:10 PM 60.2°F15.7°C 59.6°F15.3°C 98% 3.2 mph ENE5.1 kmh ENE 3.2 mph5.1 kmh 29.80 in1009.1 mb 0.00 in0.0 mm 0.00 in0.0 mm 1.41 in35.8 mm
10:16 PM 60.2°F15.7°C 59.6°F15.3°C 98% 3.2 mph ENE5.1 kmh ENE 3.2 mph5.1 kmh 29.80 in1009.1 mb 0.00 in0.0 mm 0.00 in0.0 mm 1.41 in35.8 mm
10:21 PM 60.2°F15.7°C 59.6°F15.3°C 98% 3.2 mph ENE5.1 kmh ENE 3.2 mph5.1 kmh 29.80 in1009.1 mb 0.00 in0.0 mm 0.00 in0.0 mm 1.41 in35.8 mm
10:26 PM 60.2°F15.7°C 59.6°F15.3°C 98% 3.2 mph ENE5.1 kmh ENE 3.2 mph5.1 kmh 29.80 in1009.1 mb 0.00 in0.0 mm 0.00 in0.0 mm 1.41 in35.8 mm
10:31 PM 60.2°F15.7°C 59.6°F15.3°C 98% 9.8 mph ENE15.8 kmh ENE 9.8 mph15.8 kmh 29.80 in1009.1 mb 0.00 in0.0 mm 0.00 in0.0 mm 1.41 in35.8 mm
10:36 PM 60.2°F15.7°C 59.6°F15.3°C 98% 9.8 mph ENE15.8 kmh ENE 9.8 mph15.8 kmh 29.80 in1009.1 mb 0.00 in0.0 mm 0.00 in0.0 mm 1.41 in35.8 mm
10:41 PM 60.2°F15.7°C 59.6°F15.3°C 98% 9.8 mph ENE15.8 kmh ENE 9.8 mph15.8 kmh 29.80 in1009.1 mb 0.00 in0.0 mm 0.00 in0.0 mm 1.41 in35.8 mm
10:46 PM 60.2°F15.7°C 59.6°F15.3°C 98% 9.8 mph ENE15.8 kmh ENE 9.8 mph15.8 kmh 29.80 in1009.1 mb 0.00 in0.0 mm 0.00 in0.0 mm 1.41 in35.8 mm
10:51 PM 60.1°F15.6°C 59.5°F15.3°C 98% 9.8 mph ENE15.8 kmh ENE 9.8 mph15.8 kmh 29.80 in1009.1 mb 0.00 in0.0 mm 0.00 in0.0 mm 1.41 in35.8 mm
10:57 PM 60.1°F15.6°C 59.5°F15.3°C 98% 9.8 mph ENE15.8 kmh ENE 9.8 mph15.8 kmh 29.80 in1009.1 mb 0.00 in0.0 mm 0.00 in0.0 mm 1.41 in35.8 mm
11:02 PM 60.1°F15.6°C 59.5°F15.3°C 98% 9.8 mph ENE15.8 kmh ENE 9.8 mph15.8 kmh 29.80 in1009.1 mb 0.00 in0.0 mm 0.00 in0.0 mm 1.41 in35.8 mm
11:07 PM 60.1°F15.6°C 59.5°F15.3°C 98% 9.8 mph ENE15.8 kmh ENE 9.8 mph15.8 kmh 29.77 in1008.1 mb 0.00 in0.0 mm 0.00 in0.0 mm 1.41 in35.8 mm
11:12 PM 60.1°F15.6°C 59.5°F15.3°C 98% 9.8 mph ENE15.8 kmh ENE 9.8 mph15.8 kmh 29.77 in1008.1 mb 0.00 in0.0 mm 0.00 in0.0 mm 1.41 in35.8 mm
11:17 PM 60.1°F15.6°C 59.5°F15.3°C 98% 9.8 mph ENE15.8 kmh ENE 9.8 mph15.8 kmh 29.77 in1008.1 mb 0.00 in0.0 mm 0.00 in0.0 mm 1.41 in35.8 mm
11:22 PM 60.1°F15.6°C 59.5°F15.3°C 98% 9.8 mph ENE15.8 kmh ENE 9.8 mph15.8 kmh 29.77 in1008.1 mb 0.00 in0.0 mm 0.00 in0.0 mm 1.41 in35.8 mm
11:27 PM 59.9°F15.5°C 59.3°F15.2°C 98% 9.8 mph ENE15.8 kmh ENE 9.8 mph15.8 kmh 29.77 in1008.1 mb 0.00 in0.0 mm 0.00 in0.0 mm 1.41 in35.8 mm
11:32 PM 59.9°F15.5°C 59.3°F15.2°C 98% 9.8 mph ENE15.8 kmh ENE 9.8 mph15.8 kmh 29.77 in1008.1 mb 0.00 in0.0 mm 0.00 in0.0 mm 1.41 in35.8 mm
11:37 PM 59.9°F15.5°C 59.3°F15.2°C 98% 9.8 mph ENE15.8 kmh ENE 9.8 mph15.8 kmh 29.77 in1008.1 mb 0.00 in0.0 mm 0.00 in0.0 mm 1.41 in35.8 mm
11:42 PM 59.9°F15.5°C 59.3°F15.2°C 98% 9.8 mph ENE15.8 kmh ENE 9.8 mph15.8 kmh 29.77 in1008.1 mb 0.00 in0.0 mm 0.00 in0.0 mm 1.41 in35.8 mm
11:47 PM 59.9°F15.5°C 59.3°F15.2°C 98% 9.8 mph ENE15.8 kmh ENE 9.8 mph15.8 kmh 29.77 in1008.1 mb 0.00 in0.0 mm 0.00 in0.0 mm 1.41 in35.8 mm
11:52 PM 59.9°F15.5°C 59.3°F15.2°C 98% 9.8 mph ENE15.8 kmh ENE 9.8 mph15.8 kmh 29.77 in1008.1 mb 0.00 in0.0 mm 0.00 in0.0 mm 1.41 in35.8 mm
11:57 PM 59.9°F15.5°C 59.3°F15.2°C 98% 9.8 mph ENE15.8 kmh ENE 9.8 mph15.8 kmh 29.77 in1008.1 mb 0.00 in0.0 mm 0.00 in0.0 mm 1.41 in35.8 mm